CCGS Louis S. St-Laurent — CGBN — position and weather

sailwx.info

Track history (hours):
 
Tides and Currents Weather Stations Pressure Air Temp Water Temp Dewpoint Dewpoint Depression Visibility Wind Speed Wind Dir Waves Ship Positions

Oceanographic research ship CCGS Louis S. St-Laurent (Canada)

Detailed information on ship capabilities available from ARCUS's ALIAS (Arctic Logistics Information and Support) project.

Last reported at 2016-Aug-24 09:00 UTC. Time now 2016-Aug-24 10:22 UTC.
Position N 88°54' W 122°36'.

Length 119.63 m; beam 24.38 m; draft 9.9 m.

MMSI: 316165000.

Wind from 180 at 30 knots

Barometer 992.3 mb
Air temperature -2.9 ° C
Dewpoint -3.3 ° C

Date/timePositionNaut miles runAvg speedWind from/ knotsBaromVisibWave heightAir tempDewpointWater temp
2016-Aug-24 09:00N 88°54' W 122°36'6 2.0 180 / 30992.3 -2.9-3.3
2016-Aug-24 06:00N 88°48' W 123°18'7 7.3 170 / 12992.9 -3.3-4.1
2016-Aug-24 05:00N 88°54' W 119°54'4 0.2 130 / 42993.9 -3.7-4.5
2016-Aug-23 12:00N 88°54' W 123°30'6 2.0 200 / 35992.8 -2.1-2.8
2016-Aug-23 09:00N 89°00' W 122°54'6 6.0 210 / 37991.8 -2.5-3.1
2016-Aug-23 08:00N 89°06' W 122°42'1 1.1 210 / 40991.4 -2.7-3.3
2016-Aug-23 07:00N 89°06' W 123°54'6 6.0 190 / 26991.3 -2.9-3.4
2016-Aug-23 06:00N 89°12' W 123°06'6 3.0 210 / 36991.1 -2.6-3.1
2016-Aug-23 04:00N 89°18' W 122°42'1 0.7 190 / 33990.5 -2.1-2.5
2016-Aug-23 03:00N 89°18' W 123°36'6 6.0 210 / 31990.4 -1.7-2.1
2016-Aug-23 02:00N 89°24' W 123°36'0 0.4 200 / 26990.4 -1.9-2.3
2016-Aug-23 01:00N 89°24' W 124°12'6 6.2 190 / 24990.1 -2.3-2.8
2016-Aug-23 00:00N 89°30' W 121°30'0 0.3 170 / 26990.1 -2.5-3.1
2016-Aug-22 23:00N 89°30' W 122°06'6 6.1 190 / 26990.0 -1.9-2.4
2016-Aug-22 22:00N 89°36' W 123°54'1 1.3 180 / 25989.8 -2.0-2.2
2016-Aug-22 21:00N 89°36' W 120°54'6 6.0 160 / 24989.8 -2.1-2.4
2016-Aug-22 20:00N 89°42' W 121°36'6 6.0 160 / 17989.9 -2.8-3.2
2016-Aug-22 19:00N 89°48' W 119°36'0 0.4 150 / 17990.2 -3.8-4.4
2016-Aug-22 18:00N 89°48' W 117°54'6 6.0 170 / 19990.3 -5.2-5.6
2016-Aug-22 17:00N 89°54' W 115°24'1 0.3 160 / 17990.3 -5.1-5.4
2016-Aug-22 15:00N 89°54' W 110°06'2 0.1 180 / 15989.9 -5.0-5.9
2016-Aug-21 21:00N 89°54' W 131°54'0 0.2 080 / 11989.3 -4.1-4.6
2016-Aug-21 20:00N 89°54' W 129°48'3 3.1 110 / 11989.5 -3.7-4.4
2016-Aug-21 19:00N 89°54' W 100°18'10 1.5 110 / 11989.6 -4.2-4.4
2016-Aug-21 12:00N 89°54' W 002°06'12 6.0 140 / 4990.6 -3.4-3.5
2016-Aug-21 10:00N 89°54' W 117°18'12 6.1 340 / 13991.1 -3.9-4.1
2016-Aug-21 08:00N 89°42' W 126°48'6 6.2 050 / 16991.6 -3.6-3.7
2016-Aug-21 07:00N 89°36' W 122°42'12 6.1 010 / 11991.7 -3.6-3.8
2016-Aug-21 05:00N 89°24' W 126°42'0 0.1 060 / 17991.3 -4.2-4.4
2016-Aug-21 04:00N 89°24' W 126°48'6 6.1 040 / 9991.2 -3.9-4.1
2016-Aug-21 03:00N 89°18' W 128°42'6 6.0 080 / 15991.2 -3.2-3.4
2016-Aug-21 02:00N 89°12' W 128°24'6 6.0 070 / 11990.8 -3.7-3.9
2016-Aug-21 01:00N 89°06' W 129°00'0 0.1 110 / 11991.0 -3.0-3.1
2016-Aug-21 00:00N 89°06' W 128°54'0 0.0 080 / 2990.8 -1.3-2.6
2016-Aug-20 22:00N 89°06' W 128°48'12 6.0 130 / 14990.3 -2.6-3.1
2016-Aug-20 20:00N 88°54' W 128°24'24 6.0 110 / 8989.4 -1.5-1.9
2016-Aug-20 16:00N 88°30' W 126°30'6 3.1 140 / 14988.9 -1.6-1.8
2016-Aug-20 14:00N 88°36' W 127°18'0 0.3 080 / 7989.9 -1.7-2.4
2016-Aug-20 13:00N 88°36' W 127°06'0 0.3 080 / 3990.6 -2.0-2.9
2016-Aug-20 12:00N 88°36' W 126°54'6 6.0 100 / 15991.1 -2.9-3.4
2016-Aug-20 11:00N 88°30' W 127°06'0 0.2 090 / 35992.3 -3.0-3.6
2016-Aug-20 10:00N 88°30' W 127°00'0 0.3 090 / 24993.1 -3.3-4.0
2016-Aug-20 09:00N 88°30' W 126°48'5 2.4 090 / 22994.0 -3.6-4.3
2016-Aug-20 07:00N 88°30' W 123°42'11 3.6 080 / 18996.0 -4.6-5.2
2016-Aug-20 04:00N 88°30' W 116°54'7 6.8 050 / 11997.9 -3.4-5.5
2016-Aug-20 03:00N 88°24' W 114°54'7 3.4 060 / 13998.5 -3.7-5.8
2016-Aug-20 01:00N 88°24' W 110°54'3 3.2 070 / 9999.1 -3.3-4.2
2016-Aug-20 00:00N 88°24' W 109°00'9 4.3 080 / 8999.7 -2.1-3.7
2016-Aug-19 22:00N 88°18' W 105°24'3 3.4 090 / 101000.4 -2.7-5.6
2016-Aug-19 21:00N 88°18' W 103°30'4 3.6 080 / 71000.7 -0.9-3.8
2016-Aug-19 20:00N 88°18' W 101°30'8 4.2 090 / 91000.9 -2.5-3.8
2016-Aug-19 18:00N 88°12' W 098°18'9 4.5 090 / 51001.1 -0.8-4.4
2016-Aug-19 16:00N 88°06' W 094°48'8 4.1 110 / 91001.1 -1.7-4.7
2016-Aug-19 14:00N 88°00' W 092°06'6 6.4 110 / 71001.1 -1.0-4.2
2016-Aug-19 13:00N 87°54' W 091°00'5 2.3 110 / 91001.2 -1.1-3.1
2016-Aug-19 11:00N 87°54' W 088°54'8 3.8 120 / 91001.3 -0.7-2.4
2016-Aug-19 09:00N 87°48' W 086°48'2 2.3 090 / 61001.4 -1.7-2.7
2016-Aug-19 08:00N 87°48' W 085°48'1 0.9 090 / 51001.6 -1.4-2.9
2016-Aug-19 07:00N 87°48' W 085°24'2 2.3 120 / 181001.5 -3.3-3.8
2016-Aug-19 06:00N 87°48' W 086°24'1 0.9 110 / 181001.6 -3.6-4.0
2016-Aug-19 05:00N 87°48' W 086°48'0 0.5 130 / 131001.7 -3.5-4.1
2016-Aug-19 04:00N 87°48' W 086°36'6 6.2 130 / 221001.9 -3.8-4.6
2016-Aug-19 03:00N 87°54' W 086°00'0 0.4 120 / 151002.5 -3.9-4.4
2016-Aug-19 02:00N 87°54' W 085°48'1 0.5 130 / 151002.7 -4.1-5.2
2016-Aug-19 00:00N 87°54' W 086°18'6 6.2 180 / 101003.1 -3.5-4.8
2016-Aug-18 23:00N 87°48' W 086°54'0 0.0 170 / 71003.2 -3.4-4.5
2016-Aug-18 22:00N 87°48' W 086°54'1 0.7 170 / 91003.1 -4.1-5.2
2016-Aug-18 21:00N 87°48' W 087°12'1 0.9 160 / 151002.9 -3.7-5.1
2016-Aug-18 20:00N 87°48' W 086°48'6 6.1 130 / 131002.7 -3.1-3.8
2016-Aug-18 19:00N 87°54' W 086°18'0 0.4 160 / 121002.4 -3.4-4.0
2016-Aug-18 18:00N 87°54' W 086°06'12 6.1 190 / 81002.0 -3.4-4.4
2016-Aug-18 16:00N 88°06' W 085°00'6 2.1 150 / 151001.4 -2.8-3.0
2016-Aug-18 13:00N 88°12' W 086°06'0 0.2 150 / 91000.8 -3.9-4.2
2016-Aug-18 12:00N 88°12' W 086°12'7 2.3 150 / 131000.5 -4.9-5.3
2016-Aug-18 09:00N 88°18' W 084°18'6 6.1 180 / 12999.2 -4.1-4.5
2016-Aug-18 08:00N 88°24' W 083°36'1 0.5 200 / 10998.8 -3.2-3.9
2016-Aug-18 07:00N 88°24' W 083°18'6 6.0 190 / 10998.4 -3.8-4.2
2016-Aug-18 06:00N 88°30' W 083°42'6 2.0 160 / 11998.0 -3.6-4.1
2016-Aug-18 03:00N 88°36' W 083°24'1 1.0 140 / 7997.4 -4.1-4.5
2016-Aug-18 02:00N 88°36' W 082°42'19 3.1 180 / 7997.4 -4.0-4.2
2016-Aug-17 20:00N 88°54' W 079°24'2 1.7 180 / 10995.9 -3.5-5.1
2016-Aug-17 19:00N 88°54' W 077°54'12 6.2 180 / 8995.6 -3.4-4.8
2016-Aug-17 17:00N 89°06' W 074°48'6 3.0 210 / 8995.0 -3.1-3.5
2016-Aug-17 15:00N 89°12' W 073°48'6 3.1 200 / 9994.8 -2.7-3.4
2016-Aug-17 13:00N 89°18' W 071°36'5 2.7 180 / 11994.7 -2.5-3.1
2016-Aug-17 11:00N 89°18' W 064°06'0 0.2 180 / 8994.5 -1.9-3.1
2016-Aug-17 09:00N 89°18' W 063°30'0 0.1 190 / 9994.1 -2.2-3.2
2016-Aug-17 08:00N 89°18' W 063°36'1 0.3 200 / 10993.9 -2.3-3.0
2016-Aug-17 04:00N 89°18' W 065°12'2 0.5 210 / 15992.1 -2.0-3.0
2016-Aug-17 01:00N 89°18' W 067°24'1 0.3 200 / 20990.5 -0.8-2.6
2016-Aug-16 23:00N 89°18' W 068°18'1 0.7 180 / 20988.9 -0.5-2.6
2016-Aug-16 22:00N 89°18' W 069°18'1 0.2 170 / 21988.3 -0.4-2.1
2016-Aug-16 19:00N 89°18' W 068°30'1 0.6 170 / 3985.7 -0.3-2.9
2016-Aug-16 18:00N 89°18' W 069°18'7 6.7 180 / 7984.7 0.3-1.7
2016-Aug-16 17:00N 89°12' W 065°24'9 4.5 200 / 16984.2 0.7-0.3
2016-Aug-16 15:00N 89°06' W 058°00'13 6.5 170 / 18984.2 0.5-0.2
2016-Aug-16 13:00N 88°54' W 053°24'1 1.3 200 / 31984.0 0.1-0.2
2016-Aug-16 12:00N 88°54' W 052°18'2 1.6 200 / 27983.8 0.2-0.3
2016-Aug-16 11:00N 88°54' W 050°54'3 2.8 200 / 31983.6 0.2-0.2
2016-Aug-16 10:00N 88°54' W 048°30'2 1.2 190 / 17983.8 0.2-0.3
2016-Aug-16 08:00N 88°54' W 046°30'1 0.6 200 / 27983.3 -0.0-0.1
2016-Aug-16 07:00N 88°54' W 047°00'9 1.4 200 / 25983.5 -0.1-0.2
2016-Aug-16 01:00N 88°54' W 054°24'5 2.5 170 / 22989.1 -3.3-3.7
2016-Aug-15 23:00N 88°54' W 058°48'2 2.2 170 / 23990.4 -4.1-4.7
2016-Aug-15 22:00N 88°54' W 060°42'1212.1 180 / 28990.7 -3.7-4.3
2016-Aug-15 21:00N 89°06' W 062°24'22 4.4 190 / 26991.3 -3.2-3.9
2016-Aug-15 16:00N 89°12' W 038°30'6 5.5 210 / 19992.2 -4.3-6.4
2016-Aug-15 15:00N 89°12' W 031°54'12 5.8 230 / 17992.1 -4.6-6.9
2016-Aug-15 13:00N 89°06' W 020°48'20 5.0 260 / 17991.6 -4.8-5.9
2016-Aug-15 09:00N 88°48' W 013°12'13 6.7 280 / 16989.9 -4.7-5.5
2016-Aug-15 07:00N 88°36' W 008°42'1 0.4 300 / 11989.2 -4.2-5.0
2016-Aug-15 04:00N 88°36' W 007°48'1 0.2 330 / 12988.8 -3.3-4.0
2016-Aug-15 01:00N 88°36' W 007°24'   290 / 9988.3 -3.2-3.7
Track history (hours):
 
Tides and Currents Weather Stations Pressure Air Temp Water Temp Dewpoint Dewpoint Depression Visibility Wind Speed Wind Dir Waves Ship Positions

Oceanographic research ship CCGS Louis S. St-Laurent (Canada)

Detailed information on ship capabilities available from ARCUS's ALIAS (Arctic Logistics Information and Support) project.

Last reported at 2016-Aug-24 09:00 UTC. Time now 2016-Aug-24 10:22 UTC.
Position N 88°54' W 122°36'.

Length 119.63 m; beam 24.38 m; draft 9.9 m.

MMSI: 316165000.

Wind from 180 at 30 knots

Barometer 992.3 mb
Air temperature -2.9 ° C
Dewpoint -3.3 ° C

Date/timePositionNaut miles runAvg speedWind from/ knotsBaromVisibWave heightAir tempDewpointWater temp
2016-Aug-24 09:00N 88°54' W 122°36'6 2.0 180 / 30992.3 -2.9-3.3
2016-Aug-24 06:00N 88°48' W 123°18'7 7.3 170 / 12992.9 -3.3-4.1
2016-Aug-24 05:00N 88°54' W 119°54'4 0.2 130 / 42993.9 -3.7-4.5
2016-Aug-23 12:00N 88°54' W 123°30'6 2.0 200 / 35992.8 -2.1-2.8
2016-Aug-23 09:00N 89°00' W 122°54'6 6.0 210 / 37991.8 -2.5-3.1
2016-Aug-23 08:00N 89°06' W 122°42'1 1.1 210 / 40991.4 -2.7-3.3
2016-Aug-23 07:00N 89°06' W 123°54'6 6.0 190 / 26991.3 -2.9-3.4
2016-Aug-23 06:00N 89°12' W 123°06'6 3.0 210 / 36991.1 -2.6-3.1
2016-Aug-23 04:00N 89°18' W 122°42'1 0.7 190 / 33990.5 -2.1-2.5
2016-Aug-23 03:00N 89°18' W 123°36'6 6.0 210 / 31990.4 -1.7-2.1
2016-Aug-23 02:00N 89°24' W 123°36'0 0.4 200 / 26990.4 -1.9-2.3
2016-Aug-23 01:00N 89°24' W 124°12'6 6.2 190 / 24990.1 -2.3-2.8
2016-Aug-23 00:00N 89°30' W 121°30'0 0.3 170 / 26990.1 -2.5-3.1
2016-Aug-22 23:00N 89°30' W 122°06'6 6.1 190 / 26990.0 -1.9-2.4
2016-Aug-22 22:00N 89°36' W 123°54'1 1.3 180 / 25989.8 -2.0-2.2
2016-Aug-22 21:00N 89°36' W 120°54'6 6.0 160 / 24989.8 -2.1-2.4
2016-Aug-22 20:00N 89°42' W 121°36'6 6.0 160 / 17989.9 -2.8-3.2
2016-Aug-22 19:00N 89°48' W 119°36'0 0.4 150 / 17990.2 -3.8-4.4
2016-Aug-22 18:00N 89°48' W 117°54'6 6.0 170 / 19990.3 -5.2-5.6
2016-Aug-22 17:00N 89°54' W 115°24'1 0.3 160 / 17990.3 -5.1-5.4
2016-Aug-22 15:00N 89°54' W 110°06'2 0.1 180 / 15989.9 -5.0-5.9
2016-Aug-21 21:00N 89°54' W 131°54'0 0.2 080 / 11989.3 -4.1-4.6
2016-Aug-21 20:00N 89°54' W 129°48'3 3.1 110 / 11989.5 -3.7-4.4
2016-Aug-21 19:00N 89°54' W 100°18'10 1.5 110 / 11989.6 -4.2-4.4
2016-Aug-21 12:00N 89°54' W 002°06'12 6.0 140 / 4990.6 -3.4-3.5
2016-Aug-21 10:00N 89°54' W 117°18'12 6.1 340 / 13991.1 -3.9-4.1
2016-Aug-21 08:00N 89°42' W 126°48'6 6.2 050 / 16991.6 -3.6-3.7
2016-Aug-21 07:00N 89°36' W 122°42'12 6.1 010 / 11991.7 -3.6-3.8
2016-Aug-21 05:00N 89°24' W 126°42'0 0.1 060 / 17991.3 -4.2-4.4
2016-Aug-21 04:00N 89°24' W 126°48'6 6.1 040 / 9991.2 -3.9-4.1
2016-Aug-21 03:00N 89°18' W 128°42'6 6.0 080 / 15991.2 -3.2-3.4
2016-Aug-21 02:00N 89°12' W 128°24'6 6.0 070 / 11990.8 -3.7-3.9
2016-Aug-21 01:00N 89°06' W 129°00'0 0.1 110 / 11991.0 -3.0-3.1
2016-Aug-21 00:00N 89°06' W 128°54'0 0.0 080 / 2990.8 -1.3-2.6
2016-Aug-20 22:00N 89°06' W 128°48'12 6.0 130 / 14990.3 -2.6-3.1
2016-Aug-20 20:00N 88°54' W 128°24'24 6.0 110 / 8989.4 -1.5-1.9
2016-Aug-20 16:00N 88°30' W 126°30'6 3.1 140 / 14988.9 -1.6-1.8
2016-Aug-20 14:00N 88°36' W 127°18'0 0.3 080 / 7989.9 -1.7-2.4
2016-Aug-20 13:00N 88°36' W 127°06'0 0.3 080 / 3990.6 -2.0-2.9
2016-Aug-20 12:00N 88°36' W 126°54'6 6.0 100 / 15991.1 -2.9-3.4
2016-Aug-20 11:00N 88°30' W 127°06'0 0.2 090 / 35992.3 -3.0-3.6
2016-Aug-20 10:00N 88°30' W 127°00'0 0.3 090 / 24993.1 -3.3-4.0
2016-Aug-20 09:00N 88°30' W 126°48'5 2.4 090 / 22994.0 -3.6-4.3
2016-Aug-20 07:00N 88°30' W 123°42'11 3.6 080 / 18996.0 -4.6-5.2
2016-Aug-20 04:00N 88°30' W 116°54'7 6.8 050 / 11997.9 -3.4-5.5
2016-Aug-20 03:00N 88°24' W 114°54'7 3.4 060 / 13998.5 -3.7-5.8
2016-Aug-20 01:00N 88°24' W 110°54'3 3.2 070 / 9999.1 -3.3-4.2
2016-Aug-20 00:00N 88°24' W 109°00'9 4.3 080 / 8999.7 -2.1-3.7
2016-Aug-19 22:00N 88°18' W 105°24'3 3.4 090 / 101000.4 -2.7-5.6
2016-Aug-19 21:00N 88°18' W 103°30'4 3.6 080 / 71000.7 -0.9-3.8
2016-Aug-19 20:00N 88°18' W 101°30'8 4.2 090 / 91000.9 -2.5-3.8
2016-Aug-19 18:00N 88°12' W 098°18'9 4.5 090 / 51001.1 -0.8-4.4
2016-Aug-19 16:00N 88°06' W 094°48'8 4.1 110 / 91001.1 -1.7-4.7
2016-Aug-19 14:00N 88°00' W 092°06'6 6.4 110 / 71001.1 -1.0-4.2
2016-Aug-19 13:00N 87°54' W 091°00'5 2.3 110 / 91001.2 -1.1-3.1
2016-Aug-19 11:00N 87°54' W 088°54'8 3.8 120 / 91001.3 -0.7-2.4
2016-Aug-19 09:00N 87°48' W 086°48'2 2.3 090 / 61001.4 -1.7-2.7
2016-Aug-19 08:00N 87°48' W 085°48'1 0.9 090 / 51001.6 -1.4-2.9
2016-Aug-19 07:00N 87°48' W 085°24'2 2.3 120 / 181001.5 -3.3-3.8
2016-Aug-19 06:00N 87°48' W 086°24'1 0.9 110 / 181001.6 -3.6-4.0
2016-Aug-19 05:00N 87°48' W 086°48'0 0.5 130 / 131001.7 -3.5-4.1
2016-Aug-19 04:00N 87°48' W 086°36'6 6.2 130 / 221001.9 -3.8-4.6
2016-Aug-19 03:00N 87°54' W 086°00'0 0.4 120 / 151002.5 -3.9-4.4
2016-Aug-19 02:00N 87°54' W 085°48'1 0.5 130 / 151002.7 -4.1-5.2
2016-Aug-19 00:00N 87°54' W 086°18'6 6.2 180 / 101003.1 -3.5-4.8
2016-Aug-18 23:00N 87°48' W 086°54'0 0.0 170 / 71003.2 -3.4-4.5
2016-Aug-18 22:00N 87°48' W 086°54'1 0.7 170 / 91003.1 -4.1-5.2
2016-Aug-18 21:00N 87°48' W 087°12'1 0.9 160 / 151002.9 -3.7-5.1
2016-Aug-18 20:00N 87°48' W 086°48'6 6.1 130 / 131002.7 -3.1-3.8
2016-Aug-18 19:00N 87°54' W 086°18'0 0.4 160 / 121002.4 -3.4-4.0
2016-Aug-18 18:00N 87°54' W 086°06'12 6.1 190 / 81002.0 -3.4-4.4
2016-Aug-18 16:00N 88°06' W 085°00'6 2.1 150 / 151001.4 -2.8-3.0
2016-Aug-18 13:00N 88°12' W 086°06'0 0.2 150 / 91000.8 -3.9-4.2
2016-Aug-18 12:00N 88°12' W 086°12'7 2.3 150 / 131000.5 -4.9-5.3
2016-Aug-18 09:00N 88°18' W 084°18'6 6.1 180 / 12999.2 -4.1-4.5
2016-Aug-18 08:00N 88°24' W 083°36'1 0.5 200 / 10998.8 -3.2-3.9
2016-Aug-18 07:00N 88°24' W 083°18'6 6.0 190 / 10998.4 -3.8-4.2
2016-Aug-18 06:00N 88°30' W 083°42'6 2.0 160 / 11998.0 -3.6-4.1
2016-Aug-18 03:00N 88°36' W 083°24'1 1.0 140 / 7997.4 -4.1-4.5
2016-Aug-18 02:00N 88°36' W 082°42'19 3.1 180 / 7997.4 -4.0-4.2
2016-Aug-17 20:00N 88°54' W 079°24'2 1.7 180 / 10995.9 -3.5-5.1
2016-Aug-17 19:00N 88°54' W 077°54'12 6.2 180 / 8995.6 -3.4-4.8
2016-Aug-17 17:00N 89°06' W 074°48'6 3.0 210 / 8995.0 -3.1-3.5
2016-Aug-17 15:00N 89°12' W 073°48'6 3.1 200 / 9994.8 -2.7-3.4
2016-Aug-17 13:00N 89°18' W 071°36'5 2.7 180 / 11994.7 -2.5-3.1
2016-Aug-17 11:00N 89°18' W 064°06'0 0.2 180 / 8994.5 -1.9-3.1
2016-Aug-17 09:00N 89°18' W 063°30'0 0.1 190 / 9994.1 -2.2-3.2
2016-Aug-17 08:00N 89°18' W 063°36'1 0.3 200 / 10993.9 -2.3-3.0
2016-Aug-17 04:00N 89°18' W 065°12'2 0.5 210 / 15992.1 -2.0-3.0
2016-Aug-17 01:00N 89°18' W 067°24'1 0.3 200 / 20990.5 -0.8-2.6
2016-Aug-16 23:00N 89°18' W 068°18'1 0.7 180 / 20988.9 -0.5-2.6
2016-Aug-16 22:00N 89°18' W 069°18'1 0.2 170 / 21988.3 -0.4-2.1
2016-Aug-16 19:00N 89°18' W 068°30'1 0.6 170 / 3985.7 -0.3-2.9
2016-Aug-16 18:00N 89°18' W 069°18'7 6.7 180 / 7984.7 0.3-1.7
2016-Aug-16 17:00N 89°12' W 065°24'9 4.5 200 / 16984.2 0.7-0.3
2016-Aug-16 15:00N 89°06' W 058°00'13 6.5 170 / 18984.2 0.5-0.2
2016-Aug-16 13:00N 88°54' W 053°24'1 1.3 200 / 31984.0 0.1-0.2
2016-Aug-16 12:00N 88°54' W 052°18'2 1.6 200 / 27983.8 0.2-0.3
2016-Aug-16 11:00N 88°54' W 050°54'3 2.8 200 / 31983.6 0.2-0.2
2016-Aug-16 10:00N 88°54' W 048°30'2 1.2 190 / 17983.8 0.2-0.3
2016-Aug-16 08:00N 88°54' W 046°30'1 0.6 200 / 27983.3 -0.0-0.1
2016-Aug-16 07:00N 88°54' W 047°00'9 1.4 200 / 25983.5 -0.1-0.2
2016-Aug-16 01:00N 88°54' W 054°24'5 2.5 170 / 22989.1 -3.3-3.7
2016-Aug-15 23:00N 88°54' W 058°48'2 2.2 170 / 23990.4 -4.1-4.7
2016-Aug-15 22:00N 88°54' W 060°42'1212.1 180 / 28990.7 -3.7-4.3
2016-Aug-15 21:00N 89°06' W 062°24'22 4.4 190 / 26991.3 -3.2-3.9
2016-Aug-15 16:00N 89°12' W 038°30'6 5.5 210 / 19992.2 -4.3-6.4
2016-Aug-15 15:00N 89°12' W 031°54'12 5.8 230 / 17992.1 -4.6-6.9
2016-Aug-15 13:00N 89°06' W 020°48'20 5.0 260 / 17991.6 -4.8-5.9
2016-Aug-15 09:00N 88°48' W 013°12'13 6.7 280 / 16989.9 -4.7-5.5
2016-Aug-15 07:00N 88°36' W 008°42'1 0.4 300 / 11989.2 -4.2-5.0
2016-Aug-15 04:00N 88°36' W 007°48'1 0.2 330 / 12988.8 -3.3-4.0
2016-Aug-15 01:00N 88°36' W 007°24'   290 / 9988.3 -3.2-3.7

Dump ship's entire track history